createdAt,value
2023-05-04T00:02:12.871Z,99.90
2023-05-04T00:04:43.797Z,99.90
2023-05-04T00:07:12.319Z,99.90
2023-05-04T00:09:40.668Z,99.90
2023-05-04T00:12:09.061Z,99.90
2023-05-04T00:14:38.452Z,99.90
2023-05-04T00:17:08.035Z,99.90
2023-05-04T00:19:39.396Z,99.90
2023-05-04T00:22:09.211Z,99.90
2023-05-04T00:24:37.550Z,99.90
2023-05-04T00:27:05.826Z,99.90
2023-05-04T00:29:34.038Z,99.90
2023-05-04T00:32:02.516Z,99.90
2023-05-04T00:34:31.915Z,99.90
2023-05-04T00:37:01.293Z,99.90
2023-05-04T00:39:31.075Z,99.90
2023-05-04T00:41:59.474Z,99.90
2023-05-04T00:44:27.786Z,99.90
2023-05-04T00:46:57.097Z,99.90
2023-05-04T00:49:26.252Z,99.90
2023-05-04T00:51:56.034Z,99.90
2023-05-04T00:54:25.486Z,99.90
2023-05-04T00:56:55.146Z,99.90
2023-05-04T00:59:23.658Z,99.90
2023-05-04T01:01:51.986Z,99.90
2023-05-04T01:04:20.893Z,99.90
2023-05-04T01:06:54.005Z,99.90
2023-05-04T01:09:27.715Z,99.90
2023-05-04T01:12:04.333Z,99.90
2023-05-04T01:14:34.052Z,99.90
2023-05-04T01:17:05.224Z,99.90
2023-05-04T01:19:33.756Z,99.90
2023-05-04T01:22:05.590Z,99.90
2023-05-04T01:24:34.279Z,99.90
2023-05-04T01:27:07.079Z,99.90
2023-05-04T01:29:42.385Z,99.90
2023-05-04T01:32:13.113Z,99.90
2023-05-04T01:34:42.344Z,99.90
2023-05-04T01:37:12.119Z,99.90
2023-05-04T01:39:40.472Z,99.90
2023-05-04T01:42:08.838Z,99.90
2023-05-04T01:44:37.467Z,99.90
2023-05-04T01:47:06.381Z,99.90
2023-05-04T01:49:34.666Z,99.90
2023-05-04T01:52:02.866Z,99.90
2023-05-04T01:54:32.592Z,99.90
2023-05-04T01:57:01.725Z,99.90
2023-05-04T01:59:30.346Z,99.90
2023-05-04T02:01:58.676Z,99.90
2023-05-04T02:04:27.999Z,99.90
2023-05-04T02:06:56.371Z,99.90
2023-05-04T02:09:24.595Z,99.90
2023-05-04T02:11:54.268Z,99.90
2023-05-04T02:14:22.652Z,99.90
2023-05-04T02:16:51.087Z,99.90
2023-05-04T02:19:19.297Z,99.90
2023-05-04T02:21:48.824Z,99.90
2023-05-04T02:24:17.020Z,99.90
2023-05-04T02:26:45.444Z,99.90
2023-05-04T02:29:15.145Z,99.90
2023-05-04T02:31:43.479Z,99.90
2023-05-04T02:34:11.875Z,99.90
2023-05-04T02:36:48.278Z,99.90
2023-05-04T02:39:17.448Z,99.90
2023-05-04T02:41:45.688Z,99.90
2023-05-04T02:44:15.536Z,99.90
2023-05-04T02:46:43.817Z,99.90
2023-05-04T02:49:12.533Z,99.90
2023-05-04T02:51:40.773Z,99.90
2023-05-04T02:54:09.150Z,99.90
2023-05-04T02:56:37.379Z,99.90
2023-05-04T02:59:05.977Z,99.90
2023-05-04T03:01:35.547Z,99.90
2023-05-04T03:04:04.152Z,99.90
2023-05-04T03:06:32.411Z,99.90
2023-05-04T03:09:00.955Z,99.90
2023-05-04T03:11:29.339Z,99.90
2023-05-04T03:13:57.702Z,99.90
2023-05-04T03:16:26.120Z,99.90
2023-05-04T03:21:41.713Z,99.90
2023-05-04T03:24:11.420Z,99.90
2023-05-04T03:26:39.751Z,99.90
2023-05-04T03:29:08.516Z,99.90
2023-05-04T03:31:37.367Z,99.90
2023-05-04T03:34:07.128Z,99.90
2023-05-04T03:36:35.360Z,99.90
2023-05-04T03:39:03.749Z,99.90
2023-05-04T03:41:32.667Z,99.90
2023-05-04T03:44:00.980Z,99.90
2023-05-04T03:46:29.321Z,99.90
2023-05-04T03:48:59.103Z,99.90
2023-05-04T03:51:29.709Z,99.90
2023-05-04T03:53:58.130Z,99.90
2023-05-04T03:56:26.541Z,99.90
2023-05-04T03:58:54.957Z,99.90
2023-05-04T04:01:27.568Z,99.90
2023-05-04T04:03:56.051Z,99.90
2023-05-04T04:06:24.878Z,99.90
2023-05-04T04:08:55.510Z,99.90
2023-05-04T04:11:23.893Z,99.90
2023-05-04T04:13:52.316Z,99.90
2023-05-04T04:16:21.586Z,99.90
2023-05-04T04:18:50.531Z,99.90
2023-05-04T04:21:18.938Z,99.90
2023-05-04T04:23:47.273Z,99.90
2023-05-04T04:26:16.979Z,99.90
2023-05-04T04:28:50.396Z,99.90
2023-05-04T04:31:19.506Z,99.90
2023-05-04T04:33:48.196Z,99.90
2023-05-04T04:36:16.759Z,99.90
2023-05-04T04:38:45.146Z,99.90
2023-05-04T04:41:13.444Z,99.90
2023-05-04T04:43:43.121Z,99.90
2023-05-04T04:46:11.356Z,99.90
2023-05-04T04:48:39.657Z,99.90
2023-05-04T04:51:11.567Z,99.90
2023-05-04T04:53:40.096Z,99.90
2023-05-04T04:56:09.723Z,99.90
2023-05-04T04:58:38.103Z,99.90
2023-05-04T05:01:08.345Z,99.90
2023-05-04T05:03:36.745Z,99.90
2023-05-04T05:06:05.051Z,99.90
2023-05-04T05:08:35.043Z,99.90
2023-05-04T05:11:03.377Z,99.90
2023-05-04T05:13:32.563Z,99.90
2023-05-04T05:16:00.891Z,99.90
2023-05-04T05:18:30.489Z,99.90
2023-05-04T05:20:59.127Z,99.90
2023-05-04T05:23:27.824Z,99.90
2023-05-04T05:25:57.030Z,99.90
2023-05-04T05:28:25.219Z,99.90
2023-05-04T05:30:53.525Z,99.90
2023-05-04T05:33:21.753Z,99.90
2023-05-04T05:35:51.294Z,99.90
2023-05-04T05:38:20.192Z,99.90
2023-05-04T05:40:49.301Z,99.90
2023-05-04T05:43:17.444Z,99.90
2023-05-04T05:45:46.515Z,99.90
2023-05-04T05:48:14.718Z,99.90
2023-05-04T05:50:43.039Z,99.90
2023-05-04T05:53:12.742Z,99.90
2023-05-04T05:55:41.049Z,99.90
2023-05-04T05:58:09.771Z,99.90
2023-05-04T06:00:37.923Z,99.90
2023-05-04T06:03:06.319Z,99.90
2023-05-04T06:05:35.315Z,99.90
2023-05-04T06:08:03.618Z,99.90
2023-05-04T06:10:33.633Z,99.90
2023-05-04T06:13:02.073Z,99.90
2023-05-04T06:15:30.337Z,99.90
2023-05-04T06:17:58.586Z,99.90
2023-05-04T06:20:26.864Z,99.90
2023-05-04T06:22:55.165Z,99.90
2023-05-04T06:25:23.586Z,99.90
2023-05-04T06:27:53.391Z,99.90
2023-05-04T06:30:24.362Z,99.90
2023-05-04T06:32:52.680Z,99.90
2023-05-04T06:35:20.936Z,99.60
2023-05-04T06:40:18.189Z,98.90
2023-05-04T06:42:46.452Z,98.10
2023-05-04T06:45:16.079Z,98.20
2023-05-04T06:47:44.583Z,97.30
2023-05-04T06:50:13.505Z,97.60
2023-05-04T06:52:45.194Z,97.70
2023-05-04T06:55:13.918Z,97.00
2023-05-04T06:57:42.320Z,96.60
2023-05-04T07:00:11.798Z,96.30
2023-05-04T07:02:41.506Z,96.90
2023-05-04T07:05:10.269Z,96.50
2023-05-04T07:07:38.734Z,96.80
2023-05-04T07:10:08.368Z,96.40
2023-05-04T07:12:36.665Z,95.30
2023-05-04T07:15:06.837Z,95.70
2023-05-04T07:17:35.098Z,96.10
2023-05-04T07:20:05.582Z,96.10
2023-05-04T07:22:34.731Z,95.40
2023-05-04T07:25:03.437Z,95.70
2023-05-04T07:27:31.857Z,95.20
2023-05-04T07:30:01.430Z,94.20
2023-05-04T07:32:29.782Z,94.80
2023-05-04T07:34:58.106Z,94.20
2023-05-04T07:37:27.816Z,94.00
2023-05-04T07:39:56.347Z,93.90
2023-05-04T07:42:24.629Z,93.60
2023-05-04T07:44:53.798Z,93.60
2023-05-04T07:47:23.075Z,93.20
2023-05-04T07:49:52.654Z,92.30
2023-05-04T07:52:21.055Z,93.00
2023-05-04T07:54:53.512Z,92.60
2023-05-04T07:57:22.109Z,92.10
2023-05-04T07:59:50.402Z,92.60
2023-05-04T08:02:18.705Z,93.10
2023-05-04T08:04:46.927Z,93.30
2023-05-04T08:07:17.152Z,92.50
2023-05-04T08:09:45.492Z,92.90
2023-05-04T08:12:15.342Z,92.60
2023-05-04T08:14:44.067Z,92.50
2023-05-04T08:17:12.387Z,92.00
2023-05-04T08:19:40.576Z,91.40
2023-05-04T08:22:08.990Z,90.50
2023-05-04T08:24:37.463Z,90.90
2023-05-04T08:27:09.174Z,90.90
2023-05-04T08:29:39.635Z,89.70
2023-05-04T08:32:08.449Z,90.60
2023-05-04T08:34:37.507Z,90.00
2023-05-04T08:37:06.202Z,89.30
2023-05-04T08:39:34.466Z,90.50
2023-05-04T08:42:03.711Z,90.70
2023-05-04T08:44:31.989Z,89.20
2023-05-04T08:47:04.723Z,86.90
2023-05-04T08:49:33.510Z,87.10
2023-05-04T08:52:02.251Z,88.30
2023-05-04T08:54:30.876Z,86.60
2023-05-04T08:56:59.773Z,85.80
2023-05-04T08:59:30.281Z,85.90
2023-05-04T09:02:01.603Z,84.10
2023-05-04T09:04:31.658Z,84.60
2023-05-04T09:06:59.886Z,85.50
2023-05-04T09:09:29.793Z,86.10
2023-05-04T09:11:59.095Z,81.90
2023-05-04T09:14:34.141Z,81.60
2023-05-04T09:17:04.598Z,81.50
2023-05-04T09:19:34.876Z,81.60
2023-05-04T09:22:03.453Z,78.90
2023-05-04T09:24:31.766Z,79.80
2023-05-04T09:27:10.406Z,78.20
2023-05-04T09:29:39.837Z,80.00
2023-05-04T09:32:13.424Z,82.70
2023-05-04T09:34:51.850Z,79.00
2023-05-04T09:37:21.317Z,78.00
2023-05-04T09:39:56.978Z,77.00
2023-05-04T09:42:25.779Z,76.80
2023-05-04T09:45:01.855Z,75.90
2023-05-04T09:47:39.052Z,76.10
2023-05-04T09:50:20.718Z,76.50
2023-05-04T09:52:50.445Z,77.30
2023-05-04T09:55:20.297Z,75.10
2023-05-04T09:57:49.638Z,74.40
2023-05-04T10:00:19.376Z,75.20
2023-05-04T10:02:50.173Z,75.60
2023-05-04T10:05:21.862Z,74.50
2023-05-04T10:07:50.980Z,74.60
2023-05-04T10:10:19.177Z,71.90
2023-05-04T10:12:47.477Z,71.60
2023-05-04T10:15:17.049Z,71.00
2023-05-04T10:18:08.830Z,70.80
2023-05-04T10:20:54.920Z,73.10
2023-05-04T10:23:50.635Z,71.20
2023-05-04T10:26:34.208Z,71.10
2023-05-04T10:29:13.566Z,70.90
2023-05-04T10:31:42.471Z,68.10
2023-05-04T10:34:12.464Z,67.90
2023-05-04T10:36:42.450Z,66.40
2023-05-04T10:39:20.552Z,65.10
2023-05-04T10:42:00.314Z,61.70
2023-05-04T10:44:29.639Z,61.00
2023-05-04T10:46:59.896Z,59.30
2023-05-04T10:49:29.963Z,62.20
2023-05-04T10:52:12.535Z,65.50
2023-05-04T10:54:42.193Z,62.70
2023-05-04T10:57:12.608Z,60.70
2023-05-04T10:59:41.606Z,59.50
2023-05-04T11:02:10.207Z,62.60
2023-05-04T11:04:40.020Z,62.00
2023-05-04T11:07:08.977Z,61.50
2023-05-04T11:09:38.432Z,63.10
2023-05-04T11:12:10.593Z,61.90
2023-05-04T11:14:42.681Z,59.80
2023-05-04T11:19:54.176Z,60.00
2023-05-04T11:22:23.044Z,57.80
2023-05-04T11:24:51.442Z,57.30
2023-05-04T11:27:24.227Z,57.40
2023-05-04T11:29:57.066Z,59.70
2023-05-04T11:32:35.659Z,58.00
2023-05-04T11:35:08.693Z,58.60
2023-05-04T11:37:41.879Z,55.70
2023-05-04T11:40:12.153Z,56.00
2023-05-04T11:42:41.230Z,56.00
2023-05-04T11:45:13.302Z,53.50
2023-05-04T11:47:41.938Z,55.20
2023-05-04T11:50:13.380Z,56.70
2023-05-04T11:52:41.829Z,56.10
2023-05-04T11:55:11.732Z,57.30
2023-05-04T11:57:40.355Z,56.60
2023-05-04T12:00:10.069Z,57.30
2023-05-04T12:02:38.726Z,56.90
2023-05-04T12:05:15.916Z,55.70
2023-05-04T12:07:44.287Z,53.90
2023-05-04T12:10:12.770Z,50.10
2023-05-04T12:12:41.339Z,51.60
2023-05-04T12:15:11.386Z,52.10
2023-05-04T12:17:41.636Z,49.60
2023-05-04T12:20:10.558Z,50.20
2023-05-04T12:22:40.561Z,53.50
2023-05-04T12:25:11.255Z,53.60
2023-05-04T12:27:42.669Z,47.60
2023-05-04T12:30:12.223Z,49.80
2023-05-04T12:32:40.530Z,51.80
2023-05-04T12:35:09.462Z,49.70
2023-05-04T12:37:39.215Z,50.90
2023-05-04T12:40:20.977Z,51.70
2023-05-04T12:42:49.631Z,52.90
2023-05-04T12:45:18.447Z,51.60
2023-05-04T12:47:46.738Z,50.90
2023-05-04T12:50:16.008Z,50.20
2023-05-04T12:52:46.170Z,49.70
2023-05-04T12:55:15.521Z,49.70
2023-05-04T12:57:44.937Z,48.80
2023-05-04T13:00:14.466Z,50.70
2023-05-04T13:02:42.878Z,51.60
2023-05-04T13:05:11.335Z,52.50
2023-05-04T13:07:39.651Z,52.50
2023-05-04T13:10:10.149Z,49.70
2023-05-04T13:12:38.768Z,50.80
2023-05-04T13:15:08.124Z,51.00
2023-05-04T13:17:36.952Z,50.00
2023-05-04T13:20:06.912Z,48.40
2023-05-04T13:22:35.548Z,48.70
2023-05-04T13:25:03.943Z,48.10
2023-05-04T13:27:33.824Z,48.60
2023-05-04T13:30:03.563Z,48.80
2023-05-04T13:32:33.135Z,47.60
2023-05-04T13:35:01.376Z,47.70
2023-05-04T13:37:29.688Z,46.90
2023-05-04T13:39:59.599Z,46.70
2023-05-04T13:42:28.196Z,47.10
2023-05-04T13:44:57.922Z,46.20
2023-05-04T13:47:26.430Z,45.70
2023-05-04T13:49:55.848Z,44.40
2023-05-04T13:52:24.261Z,41.40
2023-05-04T13:54:53.869Z,41.50
2023-05-04T13:57:22.114Z,40.30
2023-05-04T14:00:02.797Z,39.30
2023-05-04T14:02:42.638Z,38.10
2023-05-04T14:05:11.527Z,37.80
2023-05-04T14:07:39.915Z,36.00
2023-05-04T14:10:09.008Z,35.90
2023-05-04T14:12:37.294Z,34.70
2023-05-04T14:15:06.568Z,36.10
2023-05-04T14:17:34.949Z,35.40
2023-05-04T14:20:06.004Z,35.20
2023-05-04T14:22:35.813Z,33.90
2023-05-04T14:25:07.176Z,33.40
2023-05-04T14:27:35.684Z,33.70
2023-05-04T14:30:06.997Z,32.20
2023-05-04T14:32:35.444Z,34.80
2023-05-04T14:35:08.623Z,35.00
2023-05-04T14:37:38.234Z,32.80
2023-05-04T14:40:08.384Z,33.90
2023-05-04T14:42:37.245Z,34.90
2023-05-04T14:45:06.471Z,34.70
2023-05-04T14:47:35.903Z,34.60
2023-05-04T14:50:07.339Z,35.00
2023-05-04T14:52:36.007Z,35.60
2023-05-04T14:55:06.250Z,34.80
2023-05-04T14:57:34.459Z,35.90
2023-05-04T15:00:08.022Z,34.70
2023-05-04T15:02:38.540Z,34.50
2023-05-04T15:05:10.371Z,34.20
2023-05-04T15:07:38.683Z,35.40
2023-05-04T15:10:08.869Z,34.50
2023-05-04T15:12:38.027Z,35.60
2023-05-04T15:15:07.201Z,34.50
2023-05-04T15:17:35.575Z,35.30
2023-05-04T15:20:05.029Z,36.40
2023-05-04T15:22:34.978Z,35.80
2023-05-04T15:25:03.580Z,36.30
2023-05-04T15:27:32.096Z,37.00
2023-05-04T15:30:00.602Z,37.60
2023-05-04T15:32:30.120Z,36.70
2023-05-04T15:35:05.497Z,37.50
2023-05-04T15:37:36.565Z,37.60
2023-05-04T15:40:05.574Z,38.20
2023-05-04T15:42:34.053Z,38.30
2023-05-04T15:45:02.885Z,39.10
2023-05-04T15:47:32.149Z,38.70
2023-05-04T15:50:00.465Z,37.80
2023-05-04T15:52:28.778Z,38.00
2023-05-04T15:55:04.260Z,37.70
2023-05-04T15:57:41.202Z,38.10
2023-05-04T16:00:10.709Z,37.80
2023-05-04T16:02:39.090Z,38.10
2023-05-04T16:05:07.946Z,39.60
2023-05-04T16:07:36.118Z,39.10
2023-05-04T16:10:06.848Z,38.70
2023-05-04T16:12:35.396Z,38.70
2023-05-04T16:15:03.942Z,39.20
2023-05-04T16:17:35.182Z,39.90
2023-05-04T16:20:04.256Z,40.30
2023-05-04T16:22:32.653Z,40.50
2023-05-04T16:25:01.012Z,41.00
2023-05-04T16:27:30.836Z,41.20
2023-05-04T16:29:59.950Z,41.60
2023-05-04T16:32:28.244Z,42.10
2023-05-04T16:34:56.646Z,41.60
2023-05-04T16:37:24.855Z,41.50
2023-05-04T16:39:53.170Z,41.20
2023-05-04T16:42:21.825Z,40.70
2023-05-04T16:44:51.495Z,40.70
2023-05-04T16:47:20.711Z,40.10
2023-05-04T16:49:48.920Z,41.20
2023-05-04T16:52:17.148Z,41.90
2023-05-04T16:54:45.535Z,42.20
2023-05-04T16:57:13.761Z,42.30
2023-05-04T16:59:42.054Z,42.70
2023-05-04T17:02:11.852Z,43.70
2023-05-04T17:04:40.069Z,43.90
2023-05-04T17:07:10.670Z,43.80
2023-05-04T17:09:39.900Z,44.00
2023-05-04T17:12:08.344Z,44.30
2023-05-04T17:14:36.574Z,44.50
2023-05-04T17:17:04.994Z,44.50
2023-05-04T17:19:35.926Z,44.80
2023-05-04T17:22:04.154Z,43.50
2023-05-04T17:24:32.559Z,44.30
2023-05-04T17:27:01.135Z,44.70
2023-05-04T17:29:29.301Z,44.30
2023-05-04T17:31:57.441Z,43.50
2023-05-04T17:34:25.790Z,43.70
2023-05-04T17:36:55.424Z,44.00
2023-05-04T17:39:23.746Z,44.10
2023-05-04T17:41:52.045Z,43.90
2023-05-04T17:44:20.949Z,44.20
2023-05-04T17:46:49.195Z,44.10
2023-05-04T17:49:19.187Z,43.90
2023-05-04T17:51:49.235Z,42.70
2023-05-04T17:54:19.005Z,42.20
2023-05-04T17:56:47.209Z,43.30
2023-05-04T17:59:16.813Z,42.70
2023-05-04T18:01:45.137Z,43.40
2023-05-04T18:04:13.665Z,44.20
2023-05-04T18:06:41.970Z,44.40
2023-05-04T18:09:10.259Z,46.30
2023-05-04T18:11:39.891Z,46.70
2023-05-04T18:14:08.104Z,48.70
2023-05-04T18:16:37.780Z,49.10
2023-05-04T18:19:07.152Z,50.30
2023-05-04T18:21:37.062Z,51.50
2023-05-04T18:24:05.826Z,52.00
2023-05-04T18:26:34.132Z,52.00
2023-05-04T18:29:11.635Z,52.80
2023-05-04T18:31:47.257Z,53.50
2023-05-04T18:34:15.801Z,54.30
2023-05-04T18:36:44.046Z,54.00
2023-05-04T18:39:13.631Z,53.70
2023-05-04T18:41:41.910Z,56.30
2023-05-04T18:44:18.716Z,57.90
2023-05-04T18:46:47.221Z,58.90
2023-05-04T18:49:15.702Z,58.20
2023-05-04T18:51:43.962Z,57.80
2023-05-04T18:54:14.976Z,57.90
2023-05-04T18:56:43.280Z,57.70
2023-05-04T18:59:12.117Z,57.40
2023-05-04T19:01:42.118Z,57.50
2023-05-04T19:04:11.020Z,57.70
2023-05-04T19:06:39.194Z,58.00
2023-05-04T19:09:08.305Z,58.10
2023-05-04T19:11:36.862Z,58.40
2023-05-04T19:14:05.251Z,58.70
2023-05-04T19:16:33.576Z,59.40
2023-05-04T19:19:04.168Z,59.20
2023-05-04T19:21:32.593Z,59.00
2023-05-04T19:24:00.899Z,59.60
2023-05-04T19:26:29.800Z,59.90
2023-05-04T19:28:58.109Z,60.30
2023-05-04T19:31:26.464Z,61.30
2023-05-04T19:33:54.831Z,62.50
2023-05-04T19:36:24.568Z,63.60
2023-05-04T19:38:52.929Z,64.80
2023-05-04T19:41:21.360Z,64.60
2023-05-04T19:43:49.627Z,65.70
2023-05-04T19:46:17.935Z,64.90
2023-05-04T19:48:46.191Z,65.00
2023-05-04T19:51:14.617Z,65.00
2023-05-04T19:53:44.136Z,65.70
2023-05-04T19:56:12.422Z,65.30
2023-05-04T19:58:40.739Z,65.60
2023-05-04T20:01:09.296Z,66.20
2023-05-04T20:03:37.762Z,66.20
2023-05-04T20:06:07.099Z,67.00
2023-05-04T20:08:35.400Z,67.00
2023-05-04T20:11:06.117Z,67.30
2023-05-04T20:13:34.313Z,68.30
2023-05-04T20:16:02.918Z,69.10
2023-05-04T20:18:31.126Z,69.10
2023-05-04T20:20:59.452Z,70.20
2023-05-04T20:23:27.751Z,71.20
2023-05-04T20:25:56.459Z,72.00
2023-05-04T20:28:26.163Z,72.50
2023-05-04T20:30:54.367Z,74.00
2023-05-04T20:33:22.719Z,74.50
2023-05-04T20:35:50.941Z,75.60
2023-05-04T20:38:19.134Z,76.60
2023-05-04T20:40:47.316Z,76.30
2023-05-04T20:43:15.538Z,77.50
2023-05-04T20:45:45.312Z,78.40
2023-05-04T20:48:13.554Z,80.20
2023-05-04T20:50:42.276Z,80.10
2023-05-04T20:53:10.600Z,81.20
2023-05-04T20:55:40.986Z,82.80
2023-05-04T20:58:09.218Z,83.50
2023-05-04T21:00:37.403Z,84.30
2023-05-04T21:03:07.164Z,85.20
2023-05-04T21:05:35.422Z,85.70
2023-05-04T21:08:04.024Z,86.60
2023-05-04T21:10:33.159Z,87.00
2023-05-04T21:13:01.490Z,87.00
2023-05-04T21:15:29.786Z,88.10
2023-05-04T21:17:58.335Z,87.90
2023-05-04T21:20:28.126Z,88.80
2023-05-04T21:22:56.569Z,89.40
2023-05-04T21:25:24.893Z,89.90
2023-05-04T21:27:53.252Z,90.10
2023-05-04T21:30:21.766Z,90.00
2023-05-04T21:32:50.310Z,90.30
2023-05-04T21:35:21.118Z,90.90
2023-05-04T21:37:50.766Z,91.30
2023-05-04T21:40:19.084Z,92.20
2023-05-04T21:42:47.403Z,92.60
2023-05-04T21:45:15.891Z,93.10
2023-05-04T21:47:44.289Z,93.30
2023-05-04T21:50:12.998Z,93.60
2023-05-04T21:52:41.333Z,93.80
2023-05-04T21:55:11.308Z,94.00
2023-05-04T21:57:39.589Z,94.20
2023-05-04T22:00:12.380Z,94.20
2023-05-04T22:02:40.824Z,94.20
2023-05-04T22:05:10.316Z,94.40
2023-05-04T22:07:38.829Z,94.40
2023-05-04T22:10:08.489Z,95.10
2023-05-04T22:12:38.359Z,95.20
2023-05-04T22:15:08.232Z,95.20
2023-05-04T22:17:37.198Z,95.30
2023-05-04T22:20:06.244Z,95.50
2023-05-04T22:22:34.687Z,95.80
2023-05-04T22:25:03.376Z,96.30
2023-05-04T22:27:31.595Z,96.60
2023-05-04T22:30:01.217Z,97.10
2023-05-04T22:32:29.552Z,97.00
2023-05-04T22:34:57.848Z,97.10
2023-05-04T22:37:26.246Z,97.30
2023-05-04T22:39:54.446Z,97.30
2023-05-04T22:42:22.692Z,97.40
2023-05-04T22:44:51.479Z,97.50
2023-05-04T22:47:21.173Z,97.50
2023-05-04T22:49:49.499Z,97.60
2023-05-04T22:52:17.928Z,97.80
2023-05-04T22:54:46.112Z,97.80
2023-05-04T22:57:14.339Z,97.80
2023-05-04T22:59:42.915Z,98.00
2023-05-04T23:02:12.237Z,98.50
2023-05-04T23:04:43.935Z,98.40
2023-05-04T23:07:12.124Z,98.70
2023-05-04T23:09:43.384Z,98.80
2023-05-04T23:12:11.627Z,99.40
2023-05-04T23:14:39.947Z,99.30
2023-05-04T23:17:08.201Z,99.30
2023-05-04T23:19:36.646Z,99.20
2023-05-04T23:22:06.537Z,99.00
2023-05-04T23:24:34.839Z,98.70
2023-05-04T23:27:03.258Z,98.40
2023-05-04T23:29:31.574Z,98.30
2023-05-04T23:32:00.009Z,98.10
2023-05-04T23:34:28.289Z,98.00
2023-05-04T23:36:56.598Z,97.80
2023-05-04T23:39:26.322Z,97.80
2023-05-04T23:41:54.616Z,97.70
2023-05-04T23:44:23.012Z,97.60
2023-05-04T23:46:51.223Z,97.70
2023-05-04T23:49:19.459Z,97.80
2023-05-04T23:51:47.702Z,98.10
2023-05-04T23:54:16.221Z,98.80
2023-05-04T23:56:45.896Z,98.90
2023-05-04T23:59:14.208Z,98.60
